Harrisville, New Hampshire
Current Conditions -  °F | °C
As of 11:35 AM on Monday 24 Nov 2014 (Local Time) from KEEN Reporting Station
Overcast Overcast  
Wind Chill: 64°   Ceiling: 1700
Heat Index: 64°   Visibility: 10mi
Dew Point: 61°   Wind: 15mph
Humidity: 88%   Direction: 190°S
Pressure: 29.6"   Gusts: 25mph
Location:  42.94°N, 72.1°W
Report Text: KEEN 241635Z AUTO 19013G22KT 10SM BKN017 BKN024 OVC060 18/16 A2960 RMK AO1
Loading
Personal Weather Stations






























Interactive Weather Map New forecast layout! Learn more

10-Day Weather Forecast

Advertisements
Track Severe Weather on mobile